createdAt,value
2019-03-31T00:01:55.546Z,101790.46
2019-03-31T00:04:26.946Z,101798.98
2019-03-31T00:07:00.068Z,101797.08
2019-03-31T00:09:31.962Z,101797.11
2019-03-31T00:15:00.755Z,101790.05
2019-03-31T00:17:32.159Z,101794.11
2019-03-31T00:20:03.441Z,101791.88
2019-03-31T00:22:35.954Z,101786.55
2019-03-31T00:25:07.299Z,101789.39
2019-03-31T00:27:38.477Z,101791.79
2019-03-31T00:30:09.619Z,101796.30
2019-03-31T00:32:59.925Z,101796.44
2019-03-31T00:35:31.145Z,101797.23
2019-03-31T00:38:03.377Z,101799.05
2019-03-31T00:40:34.659Z,101800.38
2019-03-31T00:43:05.789Z,101798.14
2019-03-31T00:45:37.032Z,101799.91
2019-03-31T00:48:08.264Z,101798.73
2019-03-31T00:50:39.482Z,101801.60
2019-03-31T00:53:10.600Z,101800.50
2019-03-31T00:55:41.815Z,101807.89
2019-03-31T00:58:16.049Z,101808.65
2019-03-31T01:00:53.835Z,101813.59
2019-03-31T01:03:27.091Z,101808.02
2019-03-31T01:05:58.362Z,101803.88
2019-03-31T01:08:30.369Z,101802.22
2019-03-31T01:11:14.232Z,101800.82
2019-03-31T01:13:49.891Z,101802.31
2019-03-31T01:16:21.151Z,101801.59
2019-03-31T01:18:52.453Z,101802.17
2019-03-31T01:21:23.593Z,101805.67
2019-03-31T01:23:54.713Z,101803.94
2019-03-31T01:26:26.236Z,101806.72
2019-03-31T01:28:57.751Z,101804.95
2019-03-31T01:31:49.644Z,101809.67
2019-03-31T01:34:25.236Z,101806.64
2019-03-31T01:36:57.512Z,101804.70
2019-03-31T01:39:29.797Z,101810.36
2019-03-31T01:42:01.401Z,101810.36
2019-03-31T01:44:35.658Z,101814.12
2019-03-31T01:47:08.527Z,101816.32
2019-03-31T01:49:39.687Z,101816.73
2019-03-31T01:52:15.407Z,101818.80
2019-03-31T01:54:56.483Z,101816.98
2019-03-31T01:57:34.649Z,101820.08
2019-03-31T02:00:10.595Z,101820.45
2019-03-31T02:02:50.847Z,101821.45
2019-03-31T02:05:22.067Z,101827.73
2019-03-31T02:07:54.423Z,101821.70
2019-03-31T02:10:25.735Z,101826.55
2019-03-31T02:12:56.897Z,101821.53
2019-03-31T02:15:28.254Z,101829.30
2019-03-31T02:17:59.429Z,101824.11
2019-03-31T02:20:30.772Z,101826.98
2019-03-31T02:23:01.964Z,101824.95
2019-03-31T02:25:33.249Z,101821.06
2019-03-31T02:28:12.336Z,101822.42
2019-03-31T02:30:43.469Z,101814.91
2019-03-31T02:33:14.713Z,101817.86
2019-03-31T02:36:00.073Z,101810.39
2019-03-31T02:38:31.271Z,101813.09
2019-03-31T02:41:03.545Z,101810.42
2019-03-31T02:43:35.004Z,101809.41
2019-03-31T02:46:15.570Z,101818.53
2019-03-31T02:48:46.824Z,101822.11
2019-03-31T02:51:18.213Z,101818.61
2019-03-31T02:53:49.350Z,101818.77
2019-03-31T02:56:20.857Z,101825.27
2019-03-31T02:58:53.002Z,101819.05
2019-03-31T03:01:25.588Z,101822.14
2019-03-31T03:03:56.904Z,101822.48
2019-03-31T03:06:29.080Z,101825.64
2019-03-31T03:09:01.811Z,101824.03
2019-03-31T03:11:36.558Z,101818.72
2019-03-31T03:14:07.888Z,101818.03
2019-03-31T03:16:39.145Z,101815.75
2019-03-31T03:19:10.300Z,101813.10
2019-03-31T03:21:41.439Z,101813.10
2019-03-31T03:24:12.674Z,101817.70
2019-03-31T03:26:44.003Z,101813.45
2019-03-31T03:29:15.264Z,101816.84
2019-03-31T03:31:56.491Z,101821.28
2019-03-31T03:34:27.625Z,101819.20
2019-03-31T03:36:59.562Z,101822.16
2019-03-31T03:39:31.044Z,101834.23
2019-03-31T03:42:36.239Z,101826.76
2019-03-31T03:45:08.584Z,101830.73
2019-03-31T03:47:39.800Z,101833.45
2019-03-31T03:50:11.243Z,101841.47
2019-03-31T03:52:42.404Z,101836.67
2019-03-31T03:55:13.694Z,101839.92
2019-03-31T03:57:44.790Z,101839.45
2019-03-31T04:00:16.122Z,101841.13
2019-03-31T04:02:47.407Z,101847.67
2019-03-31T04:05:18.996Z,101850.53
2019-03-31T04:07:50.346Z,101853.15
2019-03-31T04:11:13.756Z,101856.66
2019-03-31T04:13:45.091Z,101859.16
2019-03-31T04:16:16.425Z,101868.92
2019-03-31T04:18:47.601Z,101868.27
2019-03-31T04:21:18.939Z,101870.36
2019-03-31T04:23:50.154Z,101868.47
2019-03-31T04:26:21.451Z,101871.63
2019-03-31T04:28:52.626Z,101868.24
2019-03-31T04:31:23.879Z,101862.84
2019-03-31T04:33:55.017Z,101866.51
2019-03-31T04:36:26.318Z,101861.80
2019-03-31T04:39:00.115Z,101867.02
2019-03-31T04:41:30.523Z,101868.23
2019-03-31T04:44:01.712Z,101871.28
2019-03-31T04:46:33.912Z,101877.14
2019-03-31T04:49:06.164Z,101880.58
2019-03-31T04:51:38.505Z,101874.18
2019-03-31T04:54:09.621Z,101876.06
2019-03-31T04:56:40.747Z,101879.58
2019-03-31T04:59:11.982Z,101878.64
2019-03-31T05:01:43.208Z,101883.58
2019-03-31T05:04:14.443Z,101876.68
2019-03-31T05:06:45.582Z,101878.23
2019-03-31T05:09:17.660Z,101881.73
2019-03-31T05:11:48.880Z,101890.78
2019-03-31T05:14:20.009Z,101897.53
2019-03-31T05:16:51.131Z,101900.63
2019-03-31T05:19:22.392Z,101901.98
2019-03-31T05:21:53.619Z,101908.88
2019-03-31T05:24:24.662Z,101908.88
2019-03-31T05:26:59.382Z,101908.64
2019-03-31T05:29:37.746Z,101907.05
2019-03-31T05:32:09.101Z,101909.73
2019-03-31T05:34:40.216Z,101910.80
2019-03-31T05:37:11.787Z,101910.17
2019-03-31T05:39:42.935Z,101915.34
2019-03-31T05:42:29.957Z,101920.87
2019-03-31T05:45:06.291Z,101910.80
2019-03-31T05:47:37.867Z,101911.15
2019-03-31T05:50:13.101Z,101912.98
2019-03-31T05:52:44.705Z,101913.18
2019-03-31T05:55:27.140Z,101913.73
2019-03-31T05:57:58.324Z,101916.32
2019-03-31T06:00:38.320Z,101925.62
2019-03-31T06:03:27.359Z,101933.33
2019-03-31T06:06:04.626Z,101937.65
2019-03-31T06:08:35.959Z,101940.34
2019-03-31T06:11:07.210Z,101940.62
2019-03-31T06:13:38.403Z,101943.17
2019-03-31T06:16:17.010Z,101953.97
2019-03-31T06:18:51.320Z,101966.19
2019-03-31T06:21:22.676Z,101976.64
2019-03-31T06:23:55.073Z,101975.37
2019-03-31T06:26:26.275Z,101975.35
2019-03-31T06:28:57.535Z,101970.25
2019-03-31T06:31:30.775Z,101976.47
2019-03-31T06:34:01.994Z,101981.86
2019-03-31T06:37:02.624Z,101987.48
2019-03-31T06:39:34.332Z,101992.87
2019-03-31T06:42:05.775Z,102004.78
2019-03-31T06:44:38.958Z,102009.71
2019-03-31T06:47:10.501Z,102009.01
2019-03-31T06:49:41.754Z,102011.00
2019-03-31T06:52:13.011Z,102018.98
2019-03-31T06:54:44.229Z,102019.23
2019-03-31T06:57:15.479Z,102019.52
2019-03-31T06:59:46.772Z,102022.25
2019-03-31T07:02:18.022Z,102019.87
2019-03-31T07:05:00.384Z,102024.16
2019-03-31T07:07:23.845Z,102021.84
2019-03-31T07:09:55.378Z,102025.31
2019-03-31T07:12:27.596Z,102024.96
2019-03-31T07:14:58.761Z,102035.23
2019-03-31T07:17:29.996Z,102038.91
2019-03-31T07:20:01.216Z,102042.20
2019-03-31T07:22:33.650Z,102041.25
2019-03-31T07:25:05.644Z,102051.25
2019-03-31T07:27:37.033Z,102050.81
2019-03-31T07:30:09.235Z,102052.38
2019-03-31T07:32:40.488Z,102049.77
2019-03-31T07:35:18.638Z,102053.26
2019-03-31T07:37:48.236Z,102061.63
2019-03-31T07:40:21.133Z,102056.48
2019-03-31T07:42:52.667Z,102062.41
2019-03-31T07:45:24.979Z,102062.77
2019-03-31T07:47:56.273Z,102064.48
2019-03-31T07:50:28.822Z,102065.62
2019-03-31T07:53:01.047Z,102066.94
2019-03-31T07:55:41.197Z,102069.35
2019-03-31T07:58:17.588Z,102078.56
2019-03-31T08:00:48.758Z,102077.28
2019-03-31T08:03:22.074Z,102071.59
2019-03-31T08:05:53.521Z,102089.62
2019-03-31T08:08:27.585Z,102086.34
2019-03-31T08:10:59.248Z,102098.46
2019-03-31T08:13:34.219Z,102084.08
2019-03-31T08:16:07.473Z,102090.84
2019-03-31T08:18:39.053Z,102094.25
2019-03-31T08:21:10.630Z,102098.45
2019-03-31T08:23:43.865Z,102101.85
2019-03-31T08:26:15.219Z,102108.37
2019-03-31T08:28:46.329Z,102105.86
2019-03-31T08:31:17.665Z,102110.05
2019-03-31T08:33:54.108Z,102105.69
2019-03-31T08:36:25.503Z,102115.52
2019-03-31T08:39:00.307Z,102111.08
2019-03-31T08:41:33.472Z,102111.64
2019-03-31T08:44:08.682Z,102118.13
2019-03-31T08:46:39.888Z,102124.05
2019-03-31T08:49:13.988Z,102123.27
2019-03-31T08:51:45.282Z,102125.36
2019-03-31T08:54:16.532Z,102125.91
2019-03-31T08:56:47.831Z,102118.23
2019-03-31T08:59:29.963Z,102125.82
2019-03-31T09:02:03.473Z,102118.73
2019-03-31T09:04:34.807Z,102125.40
2019-03-31T09:07:06.081Z,102132.22
2019-03-31T09:09:37.228Z,102128.03
2019-03-31T09:12:08.540Z,102130.20
2019-03-31T09:14:40.848Z,102130.63
2019-03-31T09:17:12.068Z,102140.05
2019-03-31T09:19:43.638Z,102140.17
2019-03-31T09:22:14.993Z,102141.43
2019-03-31T09:24:54.384Z,102144.78
2019-03-31T09:27:25.486Z,102142.95
2019-03-31T09:29:56.628Z,102144.25
2019-03-31T09:32:27.803Z,102150.20
2019-03-31T09:34:58.924Z,102148.61
2019-03-31T09:37:30.036Z,102151.31
2019-03-31T09:40:01.335Z,102151.41
2019-03-31T09:42:33.686Z,102151.33
2019-03-31T09:45:05.696Z,102153.13
2019-03-31T09:47:38.930Z,102150.45
2019-03-31T09:50:11.580Z,102147.27
2019-03-31T09:52:44.028Z,102161.72
2019-03-31T09:55:22.902Z,102146.73
2019-03-31T09:57:52.733Z,102144.38
2019-03-31T10:00:50.748Z,102147.94
2019-03-31T10:03:22.561Z,102155.27
2019-03-31T10:05:53.688Z,102155.16
2019-03-31T10:08:30.121Z,102158.05
2019-03-31T10:11:02.968Z,102158.31
2019-03-31T10:13:34.430Z,102157.61
2019-03-31T10:16:05.780Z,102154.83
2019-03-31T10:18:58.432Z,102158.27
2019-03-31T10:21:29.703Z,102162.72
2019-03-31T10:24:00.986Z,102158.84
2019-03-31T10:26:32.619Z,102167.19
2019-03-31T10:29:03.936Z,102161.03
2019-03-31T10:31:35.240Z,102163.94
2019-03-31T10:34:06.717Z,102158.14
2019-03-31T10:36:44.882Z,102158.14
2019-03-31T10:39:12.942Z,102162.34
2019-03-31T10:41:53.811Z,102168.91
2019-03-31T10:44:25.123Z,102169.55
2019-03-31T10:47:02.300Z,102171.73
2019-03-31T10:49:34.868Z,102176.37
2019-03-31T10:52:06.198Z,102165.84
2019-03-31T10:54:37.376Z,102162.63
2019-03-31T10:57:08.585Z,102165.58
2019-03-31T10:59:39.862Z,102167.95
2019-03-31T11:02:11.082Z,102161.89
2019-03-31T11:04:42.425Z,102167.77
2019-03-31T11:07:13.699Z,102168.96
2019-03-31T11:09:51.005Z,102168.11
2019-03-31T11:12:22.266Z,102170.77
2019-03-31T11:14:55.383Z,102161.39
2019-03-31T11:17:26.647Z,102162.64
2019-03-31T11:20:00.609Z,102164.21
2019-03-31T11:22:41.556Z,102171.06
2019-03-31T11:25:28.900Z,102166.08
2019-03-31T11:27:58.016Z,102166.48
2019-03-31T11:30:29.181Z,102161.87
2019-03-31T11:33:00.373Z,102161.94
2019-03-31T11:35:33.748Z,102167.05
2019-03-31T11:38:04.978Z,102158.87
2019-03-31T11:40:36.594Z,102163.20
2019-03-31T11:43:07.929Z,102157.49
2019-03-31T11:45:40.395Z,102156.95
2019-03-31T11:48:11.909Z,102161.36
2019-03-31T11:50:43.235Z,102161.23
2019-03-31T11:53:14.571Z,102169.62
2019-03-31T11:55:45.837Z,102166.42
2019-03-31T11:58:17.193Z,102156.15
2019-03-31T12:00:53.133Z,102160.27
2019-03-31T12:03:24.654Z,102155.17
2019-03-31T12:05:56.150Z,102148.63
2019-03-31T12:08:27.653Z,102152.34
2019-03-31T12:11:02.340Z,102155.50
2019-03-31T12:13:35.686Z,102162.53
2019-03-31T12:16:07.055Z,102151.77
2019-03-31T12:18:41.737Z,102149.78
2019-03-31T12:21:14.044Z,102157.77
2019-03-31T12:23:47.261Z,102153.66
2019-03-31T12:26:19.588Z,102144.22
2019-03-31T12:28:57.591Z,102151.06
2019-03-31T12:31:29.109Z,102141.19
2019-03-31T12:34:00.882Z,102143.99
2019-03-31T12:36:32.144Z,102146.17
2019-03-31T12:39:05.972Z,102145.61
2019-03-31T12:41:39.216Z,102143.48
2019-03-31T12:44:11.362Z,102131.78
2019-03-31T12:46:50.094Z,102127.20
2019-03-31T12:49:21.490Z,102129.91
2019-03-31T12:51:55.336Z,102133.27
2019-03-31T12:54:32.059Z,102136.62
2019-03-31T12:57:04.440Z,102130.78
2019-03-31T12:59:35.768Z,102128.54
2019-03-31T13:02:07.040Z,102134.17
2019-03-31T13:04:38.374Z,102129.27
2019-03-31T13:07:14.996Z,102119.64
2019-03-31T13:09:54.292Z,102113.03
2019-03-31T13:12:25.878Z,102124.03
2019-03-31T13:14:57.351Z,102122.11
2019-03-31T13:17:29.276Z,102128.52
2019-03-31T13:20:02.168Z,102121.36
2019-03-31T13:22:35.574Z,102118.67
2019-03-31T13:25:07.206Z,102115.02
2019-03-31T13:27:40.098Z,102121.17
2019-03-31T13:30:12.116Z,102125.56
2019-03-31T13:32:45.219Z,102113.83
2019-03-31T13:35:22.591Z,102115.30
2019-03-31T13:38:10.040Z,102115.38
2019-03-31T13:40:30.040Z,102116.22
2019-03-31T13:43:02.453Z,102122.34
2019-03-31T13:45:33.763Z,102120.89
2019-03-31T13:48:10.005Z,102111.20
2019-03-31T13:50:42.564Z,102109.27
2019-03-31T13:53:16.337Z,102112.80
2019-03-31T13:55:53.499Z,102125.62
2019-03-31T13:58:28.653Z,102118.52
2019-03-31T14:01:02.057Z,102108.70
2019-03-31T14:03:33.324Z,102119.56
2019-03-31T14:06:07.643Z,102120.75
2019-03-31T14:08:38.948Z,102110.97
2019-03-31T14:11:10.353Z,102115.51
2019-03-31T14:13:41.851Z,102098.16
2019-03-31T14:16:13.144Z,102096.13
2019-03-31T14:18:46.307Z,102091.16
2019-03-31T14:21:17.758Z,102088.56
2019-03-31T14:23:53.726Z,102102.15
2019-03-31T14:26:25.144Z,102095.20
2019-03-31T14:28:57.468Z,102088.50
2019-03-31T14:31:28.713Z,102081.27
2019-03-31T14:34:00.027Z,102079.47
2019-03-31T14:36:31.411Z,102088.39
2019-03-31T14:39:02.953Z,102085.02
2019-03-31T14:41:34.312Z,102093.69
2019-03-31T14:44:05.702Z,102084.61
2019-03-31T14:46:38.211Z,102090.08
2019-03-31T14:49:09.528Z,102088.45
2019-03-31T14:51:42.874Z,102091.27
2019-03-31T14:54:14.183Z,102085.27
2019-03-31T14:56:46.953Z,102088.51
2019-03-31T14:59:18.365Z,102080.06
2019-03-31T15:01:49.582Z,102088.56
2019-03-31T15:04:20.891Z,102098.47
2019-03-31T15:06:53.291Z,102087.55
2019-03-31T15:09:24.695Z,102092.20
2019-03-31T15:11:56.018Z,102082.86
2019-03-31T15:14:27.396Z,102089.83
2019-03-31T15:16:59.699Z,102083.50
2019-03-31T15:19:37.822Z,102094.09
2019-03-31T15:22:12.614Z,102082.39
2019-03-31T15:24:43.911Z,102077.57
2019-03-31T15:27:15.155Z,102074.73
2019-03-31T15:29:46.351Z,102072.16
2019-03-31T15:32:17.471Z,102068.27
2019-03-31T15:34:49.839Z,102067.16
2019-03-31T15:37:25.819Z,102070.98
2019-03-31T15:39:59.343Z,102078.08
2019-03-31T15:42:31.645Z,102069.41
2019-03-31T15:45:02.998Z,102069.74
2019-03-31T15:47:35.997Z,102076.67
2019-03-31T15:50:07.865Z,102077.99
2019-03-31T15:52:39.587Z,102082.39
2019-03-31T15:55:11.654Z,102089.84
2019-03-31T15:57:42.962Z,102085.02
2019-03-31T16:00:15.100Z,102094.82
2019-03-31T16:02:48.961Z,102084.23
2019-03-31T16:05:20.525Z,102082.62
2019-03-31T16:07:51.473Z,102080.98
2019-03-31T16:10:22.201Z,102091.37
2019-03-31T16:12:54.256Z,102080.89
2019-03-31T16:15:25.150Z,102084.61
2019-03-31T16:17:55.900Z,102087.61
2019-03-31T16:20:26.912Z,102084.75
2019-03-31T16:23:01.071Z,102080.98
2019-03-31T16:25:37.744Z,102094.22
2019-03-31T16:28:15.223Z,102091.13
2019-03-31T16:30:48.391Z,102084.23
2019-03-31T16:33:19.649Z,102087.50
2019-03-31T16:35:52.172Z,102084.98
2019-03-31T16:38:25.727Z,102084.84
2019-03-31T16:40:57.404Z,102080.58
2019-03-31T16:43:29.323Z,102078.30
2019-03-31T16:46:01.558Z,102080.87
2019-03-31T16:48:33.748Z,102080.06
2019-03-31T16:51:04.831Z,102077.77
2019-03-31T16:53:39.300Z,102077.95
2019-03-31T16:56:10.442Z,102079.04
2019-03-31T16:58:42.396Z,102082.95
2019-03-31T17:01:13.672Z,102077.53
2019-03-31T17:03:44.591Z,102084.43
2019-03-31T17:06:15.542Z,102089.11
2019-03-31T17:08:47.622Z,102078.81
2019-03-31T17:11:19.533Z,102076.55
2019-03-31T17:13:52.439Z,102079.64
2019-03-31T17:16:26.449Z,102080.98
2019-03-31T17:18:57.515Z,102076.78
2019-03-31T17:21:28.445Z,102074.78
2019-03-31T17:23:59.381Z,102081.49
2019-03-31T17:26:31.316Z,102083.55
2019-03-31T17:29:05.911Z,102080.73
2019-03-31T17:31:36.716Z,102091.27
2019-03-31T17:34:07.565Z,102082.43
2019-03-31T17:36:38.281Z,102085.59
2019-03-31T17:39:09.026Z,102080.73
2019-03-31T17:41:39.973Z,102085.67
2019-03-31T17:44:10.659Z,102089.30
2019-03-31T17:46:41.964Z,102084.35
2019-03-31T17:49:13.062Z,102092.47
2019-03-31T17:51:45.748Z,102096.17
2019-03-31T17:54:17.414Z,102099.38
2019-03-31T17:56:48.259Z,102094.47
2019-03-31T17:59:20.067Z,102098.88
2019-03-31T18:01:51.858Z,102106.97
2019-03-31T18:04:34.162Z,102105.08
2019-03-31T18:07:06.948Z,102104.27
2019-03-31T18:09:38.130Z,102102.28
2019-03-31T18:12:11.936Z,102103.82
2019-03-31T18:14:45.419Z,102116.48
2019-03-31T18:17:16.885Z,102111.18
2019-03-31T18:19:49.022Z,102111.27
2019-03-31T18:22:20.771Z,102114.42
2019-03-31T18:24:54.521Z,102117.80
2019-03-31T18:27:33.822Z,102122.95
2019-03-31T18:30:07.190Z,102124.59
2019-03-31T18:32:38.054Z,102129.59
2019-03-31T18:35:08.834Z,102127.47
2019-03-31T18:37:40.523Z,102125.66
2019-03-31T18:40:12.425Z,102136.92
2019-03-31T18:42:44.651Z,102135.06
2019-03-31T18:45:20.183Z,102144.52
2019-03-31T18:48:01.347Z,102142.05
2019-03-31T18:50:33.958Z,102146.15
2019-03-31T18:53:12.381Z,102149.45
2019-03-31T18:55:51.193Z,102147.32
2019-03-31T18:58:25.254Z,102153.95
2019-03-31T19:01:11.386Z,102151.50
2019-03-31T19:03:49.710Z,102155.84
2019-03-31T19:06:28.440Z,102161.58
2019-03-31T19:09:03.811Z,102158.43
2019-03-31T19:11:59.084Z,102159.36
2019-03-31T19:14:34.225Z,102163.02
2019-03-31T19:17:15.843Z,102172.09
2019-03-31T19:19:51.165Z,102166.30
2019-03-31T19:22:24.754Z,102159.75
2019-03-31T19:25:13.714Z,102165.47
2019-03-31T19:27:49.487Z,102163.89
2019-03-31T19:30:22.020Z,102162.57
2019-03-31T19:33:15.209Z,102155.07
2019-03-31T19:36:00.483Z,102163.02
2019-03-31T19:38:50.875Z,102168.28
2019-03-31T19:41:38.706Z,102165.16
2019-03-31T19:44:18.446Z,102172.60
2019-03-31T19:47:05.752Z,102164.64
2019-03-31T19:49:38.399Z,102172.94
2019-03-31T19:52:18.661Z,102171.91
2019-03-31T19:54:54.222Z,102176.41
2019-03-31T19:57:27.146Z,102181.22
2019-03-31T20:00:15.742Z,102179.77
2019-03-31T20:02:49.564Z,102187.05
2019-03-31T20:05:25.249Z,102186.95
2019-03-31T20:08:02.419Z,102190.88
2019-03-31T20:10:54.450Z,102193.17
2019-03-31T20:13:45.177Z,102187.17
2019-03-31T20:16:36.034Z,102189.55
2019-03-31T20:19:14.433Z,102189.56
2019-03-31T20:22:20.515Z,102187.43
2019-03-31T20:25:03.341Z,102183.02
2019-03-31T20:27:54.214Z,102187.58
2019-03-31T20:30:59.820Z,102189.64
2019-03-31T20:33:32.119Z,102191.67
2019-03-31T20:36:04.495Z,102189.86
2019-03-31T20:38:55.393Z,102191.60
2019-03-31T20:41:32.009Z,102193.98
2019-03-31T20:44:02.808Z,102192.80
2019-03-31T20:46:33.543Z,102191.24
2019-03-31T20:49:04.287Z,102194.66
2019-03-31T20:52:10.042Z,102194.57
2019-03-31T20:54:41.816Z,102197.73
2019-03-31T20:57:12.443Z,102204.16
2019-03-31T20:59:43.198Z,102200.11
2019-03-31T21:02:31.955Z,102203.75
2019-03-31T21:05:02.585Z,102206.14
2019-03-31T21:07:33.586Z,102206.33
2019-03-31T21:10:07.390Z,102207.30
2019-03-31T21:12:38.134Z,102211.64
2019-03-31T21:15:08.842Z,102208.57
2019-03-31T21:17:39.771Z,102215.48
2019-03-31T21:20:10.687Z,102217.16
2019-03-31T21:22:41.584Z,102209.14
2019-03-31T21:25:13.823Z,102215.38
2019-03-31T21:27:44.748Z,102216.31
2019-03-31T21:30:33.662Z,102216.78
2019-03-31T21:33:05.450Z,102216.52
2019-03-31T21:35:48.439Z,102219.81
2019-03-31T21:38:19.041Z,102226.95
2019-03-31T21:40:50.033Z,102227.77
2019-03-31T21:43:20.634Z,102232.98
2019-03-31T21:45:58.238Z,102229.03
2019-03-31T21:48:28.944Z,102232.02
2019-03-31T21:50:59.674Z,102229.87
2019-03-31T21:53:31.503Z,102241.64
2019-03-31T21:56:02.135Z,102227.13
2019-03-31T21:58:33.029Z,102236.72
2019-03-31T22:01:29.995Z,102237.33
2019-03-31T22:04:00.696Z,102231.67
2019-03-31T22:06:32.513Z,102238.34
2019-03-31T22:09:04.873Z,102246.31
2019-03-31T22:11:37.072Z,102246.66
2019-03-31T22:14:10.484Z,102238.06
2019-03-31T22:16:42.222Z,102240.79
2019-03-31T22:19:14.924Z,102237.60
2019-03-31T22:21:51.617Z,102244.78
2019-03-31T22:24:22.173Z,102233.50
2019-03-31T22:26:52.660Z,102239.22
2019-03-31T22:29:29.046Z,102232.53
2019-03-31T22:31:59.737Z,102242.49
2019-03-31T22:34:31.493Z,102245.62
2019-03-31T22:37:03.258Z,102242.44
2019-03-31T22:39:40.030Z,102240.20
2019-03-31T22:42:10.768Z,102245.45
2019-03-31T22:44:41.685Z,102247.45
2019-03-31T22:47:19.797Z,102240.72
2019-03-31T22:49:50.434Z,102236.91
2019-03-31T22:52:21.178Z,102234.59
2019-03-31T22:54:51.760Z,102234.55
2019-03-31T22:57:22.416Z,102234.41
2019-03-31T22:59:57.152Z,102233.73
2019-03-31T23:02:31.708Z,102238.75
2019-03-31T23:05:03.361Z,102229.84
2019-03-31T23:07:34.073Z,102239.10
2019-03-31T23:10:05.844Z,102228.86
2019-03-31T23:12:36.699Z,102234.31
2019-03-31T23:15:07.748Z,102234.80
2019-03-31T23:17:41.665Z,102246.05
2019-03-31T23:20:12.384Z,102230.92
2019-03-31T23:22:42.866Z,102227.22
2019-03-31T23:25:15.557Z,102215.77
2019-03-31T23:27:46.265Z,102224.61
2019-03-31T23:30:17.011Z,102232.91
2019-03-31T23:32:53.445Z,102218.65
2019-03-31T23:35:24.162Z,102222.46
2019-03-31T23:37:54.824Z,102221.92
2019-03-31T23:40:25.424Z,102215.92
2019-03-31T23:42:56.307Z,102216.29
2019-03-31T23:45:26.893Z,102219.02
2019-03-31T23:47:57.550Z,102205.92
2019-03-31T23:50:28.151Z,102211.82
2019-03-31T23:52:58.926Z,102218.28
2019-03-31T23:55:29.585Z,102213.41
2019-03-31T23:58:04.269Z,102208.75
